Time;durP1;ratioP1;P1;durP2;ratioP2;P2;SDS_P1;SDS_P2;PMS_P1;PMS_P2;Temp;Humidity;BMP_temperature;BMP_pressure;BME280_temperature;BME280_humidity;BME280_pressure;Samples;Min_cycle;Max_cycle;Signal;HPM_P1;HPM_P2
2022/01/11 00:02:29;;;;;;;20.97;14.60;;;;;;;0.71;100.00;95509.25;5023798;28;20234;-73
2022/01/11 00:05:23;;;;;;;21.37;15.53;;;;;;;0.70;100.00;95515.75;5029791;28;20211;-74
2022/01/11 00:08:11;;;;;;;20.40;15.17;;;;;;;0.67;100.00;95513.84;5024350;28;20286;-74
2022/01/11 00:11:04;;;;;;;25.00;14.10;;;;;;;0.58;100.00;95506.13;5008824;28;20210;-74
2022/01/11 00:13:49;;;;;;;22.37;13.63;;;;;;;0.55;100.00;95506.88;5024859;28;20873;-75
2022/01/11 00:16:35;;;;;;;23.23;15.17;;;;;;;0.67;100.00;95519.22;5009713;28;20211;-74
2022/01/11 00:19:21;;;;;;;23.17;14.83;;;;;;;0.66;100.00;95515.75;5025537;28;20230;-73
2022/01/11 00:22:16;;;;;;;20.90;13.97;;;;;;;0.70;100.00;95524.59;5016306;28;20199;-74
2022/01/11 00:25:02;;;;;;;25.67;15.93;;;;;;;0.73;100.00;95502.34;5032743;28;20227;-74
2022/01/11 00:27:48;;;;;;;22.63;15.03;;;;;;;0.88;100.00;95516.59;4997986;28;20212;-74
2022/01/11 00:30:37;;;;;;;24.93;14.73;;;;;;;0.89;100.00;95524.28;5005544;28;20196;-74
2022/01/11 00:34:00;;;;;;;23.13;16.07;;;;;;;0.79;100.00;95516.19;5011843;28;20248;-74
2022/01/11 00:36:42;;;;;;;26.33;14.93;;;;;;;0.76;100.00;95523.09;5010197;28;20676;-73
2022/01/11 00:39:28;;;;;;;26.33;16.03;;;;;;;0.67;100.00;95525.38;5016332;28;20338;-74
2022/01/11 00:42:15;;;;;;;21.63;14.60;;;;;;;0.74;100.00;95519.25;5000230;28;20200;-74
2022/01/11 00:45:03;;;;;;;23.83;15.00;;;;;;;0.70;100.00;95519.22;5015488;28;20199;-75
2022/01/11 00:47:49;;;;;;;27.10;15.57;;;;;;;0.77;100.00;95521.16;5013521;28;20685;-75
2022/01/11 00:50:36;;;;;;;28.93;15.20;;;;;;;0.63;100.00;95511.13;5025106;28;20282;-74
2022/01/11 00:53:23;;;;;;;23.43;15.77;;;;;;;0.81;100.00;95538.88;5010340;28;20199;-74
2022/01/11 00:56:09;;;;;;;29.53;15.87;;;;;;;0.64;100.00;95530.72;5008584;28;20272;-74
2022/01/11 00:58:55;;;;;;;20.17;15.10;;;;;;;0.61;100.00;95540.31;5030033;28;20222;-74
2022/01/11 01:01:41;;;;;;;25.40;15.23;;;;;;;0.66;100.00;95537.25;5005940;28;20203;-74
2022/01/11 01:04:27;;;;;;;26.50;15.40;;;;;;;0.66;100.00;95548.00;5027511;28;20758;-74
2022/01/11 01:07:13;;;;;;;27.47;15.07;;;;;;;0.72;100.00;95551.09;5024467;28;20264;-74
2022/01/11 01:12:54;;;;;;;26.10;15.67;;;;;;;0.61;100.00;95559.13;5004324;28;20191;-74
2022/01/11 01:15:41;;;;;;;25.87;15.40;;;;;;;0.60;100.00;95546.06;5009587;28;20196;-74
2022/01/11 01:18:36;;;;;;;26.80;14.53;;;;;;;0.71;100.00;95558.38;5014326;28;20265;-74
2022/01/11 01:21:22;;;;;;;26.07;14.60;;;;;;;0.64;100.00;95574.50;5007682;28;20218;-74
2022/01/11 01:24:11;;;;;;;23.07;15.43;;;;;;;0.67;100.00;95572.97;5003764;28;20207;-74
2022/01/11 01:26:57;;;;;;;24.87;15.27;;;;;;;0.64;100.00;95562.97;5008309;28;20191;-74
2022/01/11 01:29:43;;;;;;;29.67;16.20;;;;;;;0.74;100.00;95573.00;5020455;28;20234;-74
2022/01/11 01:32:29;;;;;;;25.27;16.27;;;;;;;0.66;100.00;95566.06;5010979;28;20277;-74
2022/01/11 01:35:16;;;;;;;24.67;14.73;;;;;;;0.71;100.00;95573.78;5027681;28;20195;-74
2022/01/11 01:38:02;;;;;;;24.37;15.87;;;;;;;0.57;100.00;95562.94;5008793;28;20673;-74
2022/01/11 01:40:54;;;;;;;28.50;15.87;;;;;;;0.62;100.00;95567.94;5009399;28;20214;-74
2022/01/11 01:43:41;;;;;;;23.80;15.03;;;;;;;0.54;100.00;95569.06;4995974;28;20242;-74
2022/01/11 01:46:28;;;;;;;31.83;16.23;;;;;;;0.59;100.00;95568.72;5007692;28;20623;-74
2022/01/11 01:49:19;;;;;;;31.37;15.10;;;;;;;0.61;100.00;95574.50;5008385;28;20300;-74
2022/01/11 01:52:05;;;;;;;30.80;16.47;;;;;;;0.75;100.00;95574.53;5005718;28;20206;-74
2022/01/11 01:54:52;;;;;;;29.37;16.03;;;;;;;0.72;100.00;95567.22;5012303;28;20250;-74
2022/01/11 01:57:38;;;;;;;27.20;16.10;;;;;;;0.69;100.00;95566.09;5009631;28;20202;-74
2022/01/11 02:00:26;;;;;;;29.27;16.30;;;;;;;0.64;100.00;95582.56;5009146;28;20238;-74
2022/01/11 02:03:15;;;;;;;22.90;16.00;;;;;;;0.64;100.00;95569.13;5008013;28;20199;-74
2022/01/11 02:06:01;;;;;;;26.97;17.13;;;;;;;0.68;100.00;95575.28;4998614;28;20204;-74
2022/01/11 02:08:49;;;;;;;26.13;16.23;;;;;;;0.71;100.00;95571.81;5007079;28;20224;-74
2022/01/11 02:11:35;;;;;;;28.90;16.87;;;;;;;0.87;100.00;95582.28;5026473;28;20302;-75
2022/01/11 02:14:22;;;;;;;26.33;16.83;;;;;;;0.79;100.00;95576.09;5006955;28;20199;-74
2022/01/11 02:17:08;;;;;;;26.07;16.70;;;;;;;0.73;100.00;95566.84;5016884;28;20689;-74
2022/01/11 02:19:55;;;;;;;25.17;17.20;;;;;;;0.73;100.00;95574.16;4990885;28;20254;-74
2022/01/11 02:22:42;;;;;;;24.77;15.73;;;;;;;0.83;100.00;95581.50;4991882;28;20206;-74
2022/01/11 02:25:28;;;;;;;26.57;15.93;;;;;;;0.83;100.00;95576.88;5002946;28;20202;-74
2022/01/11 02:28:17;;;;;;;26.13;17.37;;;;;;;0.82;100.00;95583.41;5005086;28;20288;-74
2022/01/11 02:31:07;;;;;;;30.03;16.73;;;;;;;0.70;100.00;95585.66;5011307;28;20209;-74
2022/01/11 02:33:58;;;;;;;23.33;16.70;;;;;;;0.68;100.00;95574.53;5004075;28;20252;-74
2022/01/11 02:36:53;;;;;;;25.60;16.50;;;;;;;0.77;100.00;95591.06;5022449;28;20282;-74
2022/01/11 02:39:49;;;;;;;27.77;16.80;;;;;;;0.72;100.00;95592.19;5009806;28;20226;-75
2022/01/11 02:42:42;;;;;;;23.47;15.77;;;;;;;0.63;100.00;95586.38;5009127;28;20210;-74
2022/01/11 02:45:28;;;;;;;23.73;14.73;;;;;;;0.78;100.00;95600.69;5002025;28;20207;-74
2022/01/11 02:48:14;;;;;;;28.57;15.23;;;;;;;0.80;100.00;95593.00;5004090;28;20215;-74
2022/01/11 02:51:00;;;;;;;26.97;15.23;;;;;;;0.68;100.00;95588.72;5004482;28;20231;-74
2022/01/11 02:53:48;;;;;;;24.50;16.50;;;;;;;0.73;100.00;95604.47;5020866;28;20203;-74
2022/01/11 02:56:35;;;;;;;21.37;15.17;;;;;;;0.65;100.00;95615.56;5011681;28;20999;-74
2022/01/11 02:59:22;;;;;;;25.40;14.27;;;;;;;0.76;100.00;95606.44;4998977;28;20337;-74
2022/01/11 03:02:07;;;;;;;24.17;14.70;;;;;;;0.70;100.00;95599.88;5001378;28;20211;-74
2022/01/11 03:04:55;;;;;;;22.97;14.83;;;;;;;0.92;100.00;95620.31;5010614;28;20199;-74
2022/01/11 03:07:43;;;;;;;22.70;13.80;;;;;;;0.91;100.00;95610.72;5006795;28;20213;-74
2022/01/11 03:10:32;;;;;;;23.13;13.73;;;;;;;0.94;100.00;95609.97;5006121;28;20200;-74
2022/01/11 03:13:20;;;;;;;26.43;13.63;;;;;;;0.87;100.00;95603.78;4994889;28;20203;-74
2022/01/11 03:16:09;;;;;;;17.67;12.13;;;;;;;0.80;100.00;95603.75;5016191;28;20648;-74
2022/01/11 03:18:55;;;;;;;15.30;11.23;;;;;;;1.02;100.00;95605.38;4992871;28;20358;-74
2022/01/11 03:21:40;;;;;;;18.30;12.87;;;;;;;1.08;100.00;95596.59;5020384;28;20692;-74
2022/01/11 03:24:26;;;;;;;17.17;11.10;;;;;;;0.91;100.00;95608.03;4996564;28;20239;-74
2022/01/11 03:27:13;;;;;;;17.67;11.53;;;;;;;0.85;100.00;95604.16;5011774;28;20249;-74
2022/01/11 03:29:59;;;;;;;16.50;11.80;;;;;;;0.84;100.00;95612.59;5010669;28;20706;-74
2022/01/11 03:32:46;;;;;;;18.00;11.50;;;;;;;0.94;100.00;95618.03;5017824;28;20238;-74
2022/01/11 03:35:41;;;;;;;19.57;11.07;;;;;;;0.85;100.00;95616.81;5004961;28;20191;-74
2022/01/11 03:38:27;;;;;;;15.90;11.17;;;;;;;0.80;100.00;95609.13;4999477;28;20273;-74
2022/01/11 03:41:20;;;;;;;16.67;11.57;;;;;;;0.76;100.00;95608.34;5025173;28;20207;-74
2022/01/11 03:44:06;;;;;;;20.27;12.30;;;;;;;0.81;100.00;95606.09;5020969;28;20618;-74
2022/01/11 03:46:52;;;;;;;18.90;11.67;;;;;;;0.99;100.00;95611.50;4995543;28;20261;-73
2022/01/11 03:49:38;;;;;;;19.43;12.10;;;;;;;1.24;100.00;95613.16;5008606;28;20590;-74
2022/01/11 03:52:25;;;;;;;17.43;10.97;;;;;;;1.03;100.00;95610.41;5002120;28;20207;-75
2022/01/11 03:55:15;;;;;;;17.00;11.77;;;;;;;1.00;100.00;95613.81;5021819;28;20231;-74
2022/01/11 03:58:06;;;;;;;16.10;10.57;;;;;;;0.98;100.00;95623.44;4996701;28;20280;-74
2022/01/11 04:00:54;;;;;;;16.47;11.23;;;;;;;1.02;100.00;95618.81;5008310;28;20291;-74
2022/01/11 04:03:40;;;;;;;16.97;11.40;;;;;;;0.94;100.00;95622.63;5006465;28;20194;-74
2022/01/11 04:06:27;;;;;;;17.83;11.80;;;;;;;1.00;100.00;95619.19;5014023;28;20274;-74
2022/01/11 04:09:15;;;;;;;14.27;10.73;;;;;;;1.02;100.00;95624.97;4996881;28;20218;-74
2022/01/11 04:12:02;;;;;;;14.63;10.07;;;;;;;0.87;100.00;95620.69;5022772;28;20195;-74
2022/01/11 04:14:49;;;;;;;15.90;11.13;;;;;;;0.91;100.00;95615.31;5010734;28;20191;-74
2022/01/11 04:17:35;;;;;;;18.10;11.40;;;;;;;0.88;100.00;95621.47;5024210;28;20198;-74
2022/01/11 04:20:22;;;;;;;16.70;11.87;;;;;;;0.95;100.00;95621.50;5004197;28;20210;-73
2022/01/11 04:23:12;;;;;;;16.53;12.10;;;;;;;0.97;100.00;95638.00;5012155;28;20227;-74
2022/01/11 04:25:59;;;;;;;20.13;11.43;;;;;;;0.86;100.00;95627.22;5004194;28;20277;-74
2022/01/11 04:28:45;;;;;;;18.73;11.27;;;;;;;0.92;100.00;95623.03;5016650;28;20215;-74
2022/01/11 04:31:32;;;;;;;17.00;10.93;;;;;;;0.86;100.00;95626.44;5013108;28;20550;-74
2022/01/11 04:34:19;;;;;;;16.97;11.10;;;;;;;0.85;100.00;95620.28;5001689;28;20753;-74
2022/01/11 04:37:05;;;;;;;18.80;12.03;;;;;;;1.09;100.00;95629.59;5005536;28;20222;-74
2022/01/11 04:39:53;;;;;;;21.17;12.00;;;;;;;1.02;100.00;95626.88;5010854;28;20815;-75
2022/01/11 04:42:38;;;;;;;14.57;10.33;;;;;;;0.99;100.00;95623.06;5012870;28;20199;-74
2022/01/11 04:45:24;;;;;;;17.07;11.33;;;;;;;0.94;100.00;95628.78;5013740;28;20202;-74
2022/01/11 04:48:11;;;;;;;16.93;11.17;;;;;;;0.94;100.00;95628.00;5012466;28;20219;-74
2022/01/11 04:50:57;;;;;;;17.03;11.90;;;;;;;1.20;100.00;95633.88;5009904;28;20202;-74
2022/01/11 04:53:43;;;;;;;15.50;12.73;;;;;;;1.05;100.00;95631.53;4997858;28;20259;-75
2022/01/11 04:56:31;;;;;;;24.53;12.10;;;;;;;1.12;100.00;95643.06;5012778;28;20203;-75
2022/01/11 04:59:18;;;;;;;19.43;12.27;;;;;;;1.28;100.00;95642.75;5015167;28;20222;-75
2022/01/11 05:02:04;;;;;;;21.33;12.53;;;;;;;1.10;100.00;95631.91;5014911;28;20191;-74
2022/01/11 05:04:50;;;;;;;21.70;13.77;;;;;;;1.03;100.00;95637.28;5012407;28;20695;-74
2022/01/11 05:07:36;;;;;;;18.40;12.40;;;;;;;0.82;100.00;95649.84;5001529;28;20243;-74
2022/01/11 05:10:23;;;;;;;18.40;12.37;;;;;;;0.98;100.00;95653.78;5021648;28;20637;-74
2022/01/11 05:13:11;;;;;;;22.33;13.60;;;;;;;0.98;100.00;95636.88;5022701;28;20209;-74
2022/01/11 05:15:59;;;;;;;20.60;13.10;;;;;;;1.11;100.00;95656.91;5024797;28;20660;-74
2022/01/11 05:18:45;;;;;;;19.77;13.33;;;;;;;0.90;100.00;95638.75;5005563;28;20219;-74
2022/01/11 05:21:31;;;;;;;22.43;13.80;;;;;;;0.89;100.00;95649.88;5008622;28;20195;-74
2022/01/11 05:24:17;;;;;;;22.60;14.17;;;;;;;0.94;100.00;95647.63;5023775;28;20202;-74
2022/01/11 05:27:06;;;;;;;19.13;13.37;;;;;;;1.09;100.00;95659.19;5000614;28;20196;-74
2022/01/11 05:29:52;;;;;;;22.77;12.77;;;;;;;1.00;100.00;95656.84;5007473;28;20230;-74
2022/01/11 05:32:38;;;;;;;20.83;13.13;;;;;;;0.87;100.00;95657.56;4996979;28;20230;-74
2022/01/11 05:35:26;;;;;;;20.53;13.20;;;;;;;0.89;100.00;95657.94;5009360;28;20199;-74
2022/01/11 05:38:12;;;;;;;24.43;13.57;;;;;;;0.88;100.00;95659.88;5008816;28;20760;-74
2022/01/11 05:40:57;;;;;;;24.10;13.93;;;;;;;0.87;100.00;95658.34;5012606;28;20293;-74
2022/01/11 05:43:44;;;;;;;22.83;12.73;;;;;;;0.89;100.00;95672.19;5006500;28;20339;-74
2022/01/11 05:46:31;;;;;;;21.53;14.83;;;;;;;0.84;100.00;95661.78;5007682;28;20209;-75
2022/01/11 05:49:18;;;;;;;22.93;13.13;;;;;;;0.88;100.00;95662.56;5012567;28;20674;-74
2022/01/11 05:52:04;;;;;;;17.67;12.37;;;;;;;0.80;100.00;95669.03;5011572;28;20214;-74
2022/01/11 05:54:50;;;;;;;20.10;11.97;;;;;;;0.85;100.00;95684.03;5010156;28;20209;-74
2022/01/11 05:57:36;;;;;;;21.33;13.60;;;;;;;0.83;100.00;95675.59;5007909;28;20211;-73
2022/01/11 06:00:23;;;;;;;21.40;13.90;;;;;;;0.77;100.00;95680.56;4995411;28;20230;-74
2022/01/11 06:03:09;;;;;;;17.03;11.83;;;;;;;0.86;100.00;95683.69;4999450;28;20328;-73
2022/01/11 06:05:58;;;;;;;19.07;13.43;;;;;;;0.83;100.00;95702.50;5008247;28;20320;-73
2022/01/11 06:08:43;;;;;;;21.43;13.37;;;;;;;0.94;100.00;95703.31;5003810;28;20230;-73
2022/01/11 06:11:31;;;;;;;19.83;12.77;;;;;;;0.83;100.00;95705.19;5017357;28;20203;-73
2022/01/11 06:14:17;;;;;;;18.50;12.47;;;;;;;0.91;100.00;95704.06;5009695;28;20261;-73
2022/01/11 06:17:03;;;;;;;20.60;13.07;;;;;;;0.90;100.00;95710.59;4992178;28;20227;-73
2022/01/11 06:19:49;;;;;;;17.07;11.53;;;;;;;0.86;100.00;95713.25;5005641;28;20223;-73
2022/01/11 06:22:44;;;;;;;21.67;12.67;;;;;;;0.82;100.00;95709.78;5008955;28;20238;-73
2022/01/11 06:25:30;;;;;;;23.63;14.10;;;;;;;0.83;100.00;95716.69;5019645;28;20286;-73
2022/01/11 06:28:16;;;;;;;19.90;12.30;;;;;;;0.80;100.00;95716.66;5007851;28;20229;-73
2022/01/11 06:31:03;;;;;;;18.27;12.87;;;;;;;0.83;100.00;95716.69;5010430;28;20286;-73
2022/01/11 06:33:49;;;;;;;17.63;12.70;;;;;;;0.95;100.00;95726.38;5009446;28;20347;-73
2022/01/11 06:36:39;;;;;;;19.07;12.47;;;;;;;0.93;100.00;95723.28;5010582;28;20744;-73
2022/01/11 06:39:24;;;;;;;17.93;12.20;;;;;;;1.01;100.00;95727.56;5009148;28;20592;-73
2022/01/11 06:42:10;;;;;;;18.27;12.57;;;;;;;0.90;100.00;95724.78;5011890;28;20603;-73
2022/01/11 06:44:58;;;;;;;18.87;13.33;;;;;;;0.97;100.00;95726.75;5009360;28;20202;-74
2022/01/11 06:47:44;;;;;;;22.53;13.37;;;;;;;0.90;100.00;95732.88;4997897;28;20742;-73
2022/01/11 06:50:31;;;;;;;21.47;13.47;;;;;;;0.92;100.00;95741.34;4999061;28;20195;-73
2022/01/11 06:53:18;;;;;;;19.87;13.00;;;;;;;0.84;100.00;95737.06;5014537;28;20213;-73
2022/01/11 06:56:08;;;;;;;18.37;13.50;;;;;;;0.91;100.00;95733.63;5006815;28;20570;-73
2022/01/11 06:58:55;;;;;;;22.77;14.37;;;;;;;0.96;100.00;95738.66;5008288;28;20222;-74
2022/01/11 07:01:41;;;;;;;19.37;12.83;;;;;;;0.94;100.00;95746.34;5011923;28;20660;-73
2022/01/11 07:04:39;;;;;;;18.97;12.33;;;;;;;0.94;100.00;95728.28;5008354;28;20256;-74
2022/01/11 07:07:26;;;;;;;18.07;12.87;;;;;;;0.91;100.00;95734.41;5004376;28;20253;-74
2022/01/11 07:10:13;;;;;;;18.30;12.13;;;;;;;0.99;100.00;95743.28;5004203;28;20206;-74
2022/01/11 07:13:00;;;;;;;16.60;11.77;;;;;;;1.05;100.00;95742.56;5009320;28;20669;-74
2022/01/11 07:15:46;;;;;;;18.93;11.57;;;;;;;1.00;100.00;95750.22;4993419;28;20202;-74
2022/01/11 07:18:33;;;;;;;17.27;11.13;;;;;;;0.98;100.00;95747.13;5009769;28;20219;-74
2022/01/11 07:21:22;;;;;;;18.13;12.20;;;;;;;1.00;100.00;95750.22;5008790;28;20591;-74
2022/01/11 07:24:08;;;;;;;18.87;12.30;;;;;;;0.94;100.00;95747.13;5006242;28;20253;-74
2022/01/11 07:26:55;;;;;;;22.50;14.00;;;;;;;1.16;100.00;95751.47;5008808;28;20198;-74
2022/01/11 07:29:43;;;;;;;18.50;12.67;;;;;;;1.09;100.00;95748.75;5007718;28;20211;-74
2022/01/11 07:32:31;;;;;;;17.07;10.67;;;;;;;1.06;100.00;95767.53;5012881;28;20199;-74
2022/01/11 07:35:17;;;;;;;16.60;11.17;;;;;;;1.05;100.00;95777.53;5011876;28;20231;-74
2022/01/11 07:38:04;;;;;;;19.67;12.33;;;;;;;1.06;100.00;95779.09;5011516;28;20223;-74
2022/01/11 07:40:50;;;;;;;17.07;10.17;;;;;;;1.02;100.00;95783.66;5026913;28;20220;-73
2022/01/11 07:43:47;;;;;;;17.70;11.23;;;;;;;1.06;100.00;95786.38;5013336;28;20288;-73
2022/01/11 07:46:44;;;;;;;14.57;10.03;;;;;;;0.99;100.00;95780.94;5025319;28;20210;-74
2022/01/11 07:49:42;;;;;;;18.40;11.40;;;;;;;1.01;100.00;95787.50;5014131;28;20223;-74
2022/01/11 07:52:28;;;;;;;20.13;12.03;;;;;;;1.12;100.00;95782.19;5017662;28;20277;-74
2022/01/11 07:55:15;;;;;;;16.33;11.43;;;;;;;1.10;100.00;95784.50;5012742;28;20825;-74
2022/01/11 07:58:02;;;;;;;16.23;11.60;;;;;;;1.12;100.00;95785.63;5012925;28;20641;-74
2022/01/11 08:00:48;;;;;;;17.93;12.73;;;;;;;1.21;100.00;95791.47;5026910;28;20216;-74
2022/01/11 08:03:38;;;;;;;15.87;10.33;;;;;;;1.13;100.00;95779.13;5003264;28;20206;-74
2022/01/11 08:06:29;;;;;;;23.00;9.93;;;;;;;1.29;100.00;95784.19;5009918;28;20254;-74
2022/01/11 08:09:26;;;;;;;14.67;11.07;;;;;;;1.46;100.00;95788.91;5008474;28;20218;-74
2022/01/11 08:12:13;;;;;;;21.73;12.10;;;;;;;1.42;100.00;95790.03;4997780;28;20207;-75
2022/01/11 08:14:59;;;;;;;16.73;12.03;;;;;;;1.42;100.00;95785.44;5007347;28;20680;-74
2022/01/11 08:17:46;;;;;;;18.73;12.27;;;;;;;1.40;100.00;95798.50;5025577;28;20211;-75
2022/01/11 08:20:33;;;;;;;14.30;10.80;;;;;;;1.54;100.00;95793.19;5004579;28;20215;-74
2022/01/11 08:23:19;;;;;;;13.13;10.70;;;;;;;1.48;100.00;95786.63;5015306;28;20678;-74
2022/01/11 08:26:05;;;;;;;16.13;10.97;;;;;;;1.58;100.00;95790.53;5005576;28;20207;-74
2022/01/11 08:28:51;;;;;;;15.17;11.60;;;;;;;1.51;100.00;95830.88;5030996;28;20239;-74
2022/01/11 08:31:39;;;;;;;17.20;12.47;;;;;;;1.62;100.00;95785.91;5016098;28;20235;-74
2022/01/11 08:34:25;;;;;;;15.57;10.47;;;;;;;1.27;100.00;95783.81;5000145;28;20282;-74
2022/01/11 08:37:12;;;;;;;15.10;10.47;;;;;;;1.31;100.00;95791.91;5007509;28;20194;-75
2022/01/11 08:39:59;;;;;;;17.63;10.90;;;;;;;1.20;100.00;95794.53;5014817;28;20656;-74
2022/01/11 08:42:46;;;;;;;13.80;10.30;;;;;;;1.21;100.00;95785.31;5010049;28;20292;-73
2022/01/11 08:45:34;;;;;;;16.00;10.63;;;;;;;1.31;100.00;95781.16;5012376;28;20210;-74
2022/01/11 08:48:25;;;;;;;17.23;10.80;;;;;;;1.66;100.00;95776.72;5001882;28;20218;-74
2022/01/11 08:51:18;;;;;;;13.50;10.07;;;;;;;1.74;100.00;95789.06;5013558;28;20257;-75
2022/01/11 08:54:05;;;;;;;13.73;9.10;;;;;;;1.71;100.00;95789.81;5001490;28;20685;-75
2022/01/11 08:56:54;;;;;;;15.63;9.57;;;;;;;1.90;100.00;95794.13;5011477;28;20196;-74
2022/01/11 08:59:40;;;;;;;15.67;9.30;;;;;;;1.95;100.00;95802.59;5011688;28;20211;-74
2022/01/11 09:02:28;;;;;;;9.90;7.53;;;;;;;1.76;100.00;95794.06;5003354;28;23781;-74
2022/01/11 09:05:15;;;;;;;12.10;8.47;;;;;;;1.60;100.00;95794.38;5013352;28;20272;-74
2022/01/11 09:08:01;;;;;;;12.90;9.40;;;;;;;1.70;100.00;95811.72;5009242;28;20203;-74
2022/01/11 09:10:47;;;;;;;10.43;8.63;;;;;;;1.51;100.00;95809.34;5011655;28;20553;-74
2022/01/11 09:13:36;;;;;;;12.63;9.27;;;;;;;1.49;100.00;95835.84;5018911;28;20278;-73
2022/01/11 09:16:25;;;;;;;13.47;9.43;;;;;;;1.55;100.00;95831.63;4996982;28;20200;-74
2022/01/11 09:19:13;;;;;;;14.40;9.17;;;;;;;1.56;100.00;95836.63;5011319;28;20226;-73
2022/01/11 09:21:59;;;;;;;12.50;7.83;;;;;;;1.70;100.00;95839.41;5013287;28;20195;-74
2022/01/11 09:24:45;;;;;;;12.83;8.17;;;;;;;1.71;100.00;95824.81;5018078;28;20207;-74
2022/01/11 09:27:35;;;;;;;9.37;7.37;;;;;;;1.69;100.00;95829.03;5020147;28;20214;-73
2022/01/11 09:30:23;;;;;;;11.47;8.20;;;;;;;1.77;100.00;95831.38;5011681;28;20233;-73
2022/01/11 09:33:11;;;;;;;11.90;7.63;;;;;;;1.76;100.00;95837.16;5010980;28;20199;-73
2022/01/11 09:35:59;;;;;;;13.47;8.27;;;;;;;2.05;100.00;95831.47;5011064;28;20207;-74
2022/01/11 09:38:46;;;;;;;10.30;8.20;;;;;;;2.16;100.00;95843.09;5011194;28;20219;-74
2022/01/11 09:41:36;;;;;;;9.80;7.90;;;;;;;2.02;100.00;95829.56;5007335;28;20199;-73
2022/01/11 09:44:26;;;;;;;12.23;8.43;;;;;;;1.79;100.00;95844.47;5009646;28;20221;-73
2022/01/11 09:47:13;;;;;;;9.43;7.40;;;;;;;1.63;100.00;95850.16;4997085;28;20705;-73
2022/01/11 09:50:03;;;;;;;12.43;8.27;;;;;;;1.92;100.00;95843.75;5006883;28;20724;-73
2022/01/11 09:52:50;;;;;;;9.63;7.37;;;;;;;2.12;100.00;95834.22;4997985;28;20210;-73
2022/01/11 09:55:37;;;;;;;11.37;7.90;;;;;;;2.30;100.00;95839.66;5013085;28;20191;-73
2022/01/11 09:58:23;;;;;;;12.90;9.00;;;;;;;2.63;100.00;95825.84;5013213;28;20602;-74
2022/01/11 10:01:12;;;;;;;11.73;7.93;;;;;;;2.72;100.00;95834.34;5008796;28;20214;-74
2022/01/11 10:04:13;;;;;;;13.00;8.57;;;;;;;2.75;100.00;95833.56;5024549;28;21139;-74
2022/01/11 10:07:34;;;;;;;11.53;8.37;;;;;;;2.96;100.00;95830.13;5012452;28;20207;-74
2022/01/11 10:10:24;;;;;;;10.93;8.87;;;;;;;3.33;100.00;95827.78;5014676;28;20187;-74
2022/01/11 10:13:39;;;;;;;9.80;7.77;;;;;;;3.43;100.00;95821.59;5012555;28;20575;-74
2022/01/11 10:16:38;;;;;;;10.10;7.90;;;;;;;3.42;97.05;95814.66;5009984;28;20203;-75
2022/01/11 10:19:28;;;;;;;9.73;7.83;;;;;;;3.96;94.54;95824.94;4998508;28;20298;-75
2022/01/11 10:22:21;;;;;;;9.53;7.47;;;;;;;3.86;92.39;95817.66;5015331;28;20621;-75
2022/01/11 10:25:07;;;;;;;10.30;8.27;;;;;;;3.39;97.00;95802.69;5003245;28;20204;-74
2022/01/11 10:28:00;;;;;;;10.57;8.90;;;;;;;3.55;96.61;95821.97;5010326;28;20210;-74
2022/01/11 10:30:47;;;;;;;13.57;10.07;;;;;;;3.40;99.21;95820.47;5008756;28;20574;-73
2022/01/11 10:33:35;;;;;;;13.17;9.30;;;;;;;3.06;97.96;95811.25;4993969;28;20287;-74
2022/01/11 10:36:42;;;;;;;12.43;9.53;;;;;;;2.78;100.00;95811.25;4994028;28;20266;-74
2022/01/11 10:39:41;;;;;;;10.10;8.77;;;;;;;2.66;100.00;95811.63;5006652;28;20223;-74
2022/01/11 10:42:33;;;;;;;11.37;8.70;;;;;;;2.66;100.00;95825.09;5007370;28;20953;-74
2022/01/11 10:45:25;;;;;;;13.90;8.80;;;;;;;2.36;100.00;95820.03;4997592;28;20269;-74
2022/01/11 10:48:13;;;;;;;9.77;7.70;;;;;;;2.32;100.00;95821.19;5008797;28;20250;-74
2022/01/11 10:51:01;;;;;;;11.10;8.03;;;;;;;2.08;100.00;95819.97;5007608;28;20257;-74
2022/01/11 10:53:51;;;;;;;10.67;8.13;;;;;;;2.02;100.00;95816.09;5003797;28;20202;-74
2022/01/11 10:56:41;;;;;;;12.60;8.13;;;;;;;2.12;100.00;95811.91;4997541;28;20219;-74
2022/01/11 10:59:27;;;;;;;11.77;7.17;;;;;;;2.03;100.00;95817.66;5010049;28;20254;-74
2022/01/11 11:02:25;;;;;;;11.93;8.37;;;;;;;1.85;100.00;95821.41;5004668;28;20252;-74
2022/01/11 11:05:18;;;;;;;9.27;7.90;;;;;;;1.77;100.00;95820.59;5006862;28;20293;-74
2022/01/11 11:08:14;;;;;;;11.17;8.20;;;;;;;1.71;100.00;95830.22;5009828;28;20300;-74
2022/01/11 11:11:12;;;;;;;14.20;8.80;;;;;;;2.13;100.00;95826.91;4996683;28;20194;-74
2022/01/11 11:14:01;;;;;;;14.03;9.27;;;;;;;1.95;100.00;95826.81;5009943;28;20265;-73
2022/01/11 11:16:48;;;;;;;12.47;8.57;;;;;;;2.17;100.00;95830.38;5012878;28;20199;-73
2022/01/11 11:20:02;;;;;;;13.97;10.17;;;;;;;2.20;100.00;95830.41;5006173;28;20223;-73
2022/01/11 11:22:51;;;;;;;15.23;10.83;;;;;;;2.02;100.00;95834.19;5009701;28;20205;-74
2022/01/11 11:25:37;;;;;;;14.93;10.50;;;;;;;2.21;100.00;95837.31;5027411;28;20191;-73
2022/01/11 11:28:22;;;;;;;14.73;10.47;;;;;;;2.42;100.00;95840.09;5020454;28;20270;-73
2022/01/11 11:31:09;;;;;;;12.73;9.83;;;;;;;2.51;100.00;95847.03;5027100;28;20196;-74
2022/01/11 11:33:55;;;;;;;13.70;9.87;;;;;;;2.41;100.00;95845.84;5028651;28;20862;-74
2022/01/11 11:36:42;;;;;;;10.77;8.70;;;;;;;2.23;100.00;95836.94;5020576;28;20199;-74
2022/01/11 11:39:28;;;;;;;14.03;8.53;;;;;;;2.27;100.00;95841.19;5022588;28;20797;-74
2022/01/11 11:42:16;;;;;;;10.70;8.73;;;;;;;2.29;100.00;95873.16;5022746;28;20280;-74
2022/01/11 11:45:17;;;;;;;12.87;9.00;;;;;;;2.35;100.00;95856.25;5007417;28;20282;-74
2022/01/11 11:48:03;;;;;;;13.10;8.73;;;;;;;2.32;100.00;95842.75;5022236;28;20195;-73
2022/01/11 11:50:53;;;;;;;10.00;8.63;;;;;;;2.50;100.00;95843.56;5028537;28;20191;-73
2022/01/11 11:53:41;;;;;;;8.53;7.13;;;;;;;2.43;100.00;95841.63;5010176;28;20608;-74
2022/01/11 11:56:26;;;;;;;11.60;6.97;;;;;;;2.42;100.00;95845.47;5015191;28;20278;-74
2022/01/11 11:59:13;;;;;;;14.77;6.90;;;;;;;2.31;100.00;95841.97;5010105;28;20220;-73
2022/01/11 12:02:00;;;;;;;7.63;6.53;;;;;;;2.06;100.00;95840.34;5018101;28;20668;-74
2022/01/11 12:04:53;;;;;;;9.40;7.03;;;;;;;2.03;100.00;95846.50;5021966;28;20195;-74
2022/01/11 12:07:45;;;;;;;10.50;6.90;;;;;;;1.73;100.00;95844.03;5021902;28;20192;-74
2022/01/11 12:10:49;;;;;;;10.93;7.80;;;;;;;1.85;100.00;95841.03;5022374;28;20199;-74
2022/01/11 12:13:44;;;;;;;11.37;7.80;;;;;;;1.70;100.00;95850.19;5010062;28;20214;-73
2022/01/11 12:16:36;;;;;;;10.77;7.33;;;;;;;1.59;100.00;95851.28;5004762;28;20188;-74
2022/01/11 12:19:45;;;;;;;10.17;8.23;;;;;;;1.64;100.00;95854.41;5025590;28;20262;-74
2022/01/11 12:22:51;;;;;;;13.43;8.10;;;;;;;1.59;100.00;95846.69;5007582;28;20257;-74
2022/01/11 12:25:42;;;;;;;21.90;8.60;;;;;;;1.52;100.00;95848.53;5018524;28;20804;-74
2022/01/11 12:28:28;;;;;;;11.77;8.80;;;;;;;1.66;100.00;95848.63;5015149;28;20223;-74
2022/01/11 12:31:28;;;;;;;14.60;8.47;;;;;;;1.75;100.00;95843.69;5023810;28;20199;-74
2022/01/11 12:34:14;;;;;;;11.43;8.27;;;;;;;1.82;100.00;95852.56;5021001;28;20207;-74
2022/01/11 12:37:03;;;;;;;12.70;8.40;;;;;;;1.87;100.00;95860.28;5030659;28;20203;-74
2022/01/11 12:40:15;;;;;;;12.03;8.27;;;;;;;1.75;100.00;95857.91;5026075;28;20228;-74
2022/01/11 12:43:19;;;;;;;12.13;8.23;;;;;;;1.73;100.00;95856.75;5008728;28;20219;-74
2022/01/11 12:46:09;;;;;;;10.60;7.83;;;;;;;1.75;100.00;95862.53;5032252;28;20199;-74
2022/01/11 12:48:59;;;;;;;11.70;8.73;;;;;;;1.82;100.00;95859.84;5024936;28;20208;-74
2022/01/11 12:51:53;;;;;;;16.23;7.90;;;;;;;1.93;100.00;95864.16;5009926;28;20199;-74
2022/01/11 12:54:49;;;;;;;7.90;6.83;;;;;;;1.68;100.00;95855.16;5023259;28;20291;-74
2022/01/11 12:57:36;;;;;;;7.10;6.00;;;;;;;1.68;100.00;95862.50;4999449;28;20195;-74
2022/01/11 13:00:23;;;;;;;9.00;6.23;;;;;;;1.68;100.00;95855.16;5022376;28;20215;-74
2022/01/11 13:03:08;;;;;;;10.57;6.13;;;;;;;1.80;100.00;95849.47;5014480;28;20207;-74